Time;durP1;ratioP1;P1;durP2;ratioP2;P2;SDS_P1;SDS_P2;PMS_P1;PMS_P2;Temp;Humidity;BMP_temperature;BMP_pressure;BME280_temperature;BME280_humidity;BME280_pressure;Samples;Min_cycle;Max_cycle;Signal;HPM_P1;HPM_P2
2024/02/08 00:01:23;;;;;;;3.33;3.03;;;6.70;99.90;;;;;;5021935;28;20220;-76
2024/02/08 00:03:50;;;;;;;4.40;3.33;;;6.70;99.90;;;;;;5019337;28;20220;-75
2024/02/08 00:06:15;;;;;;;8.50;3.30;;;6.70;99.90;;;;;;5051888;28;20220;-75
2024/02/08 00:08:41;;;;;;;3.90;3.13;;;6.70;99.90;;;;;;5041085;28;20472;-75
2024/02/08 00:11:07;;;;;;;3.77;2.93;;;6.70;99.90;;;;;;5024374;28;20537;-75
2024/02/08 00:13:34;;;;;;;4.00;3.60;;;6.70;99.90;;;;;;5024270;28;20212;-74
2024/02/08 00:16:00;;;;;;;5.30;3.40;;;6.70;99.90;;;;;;5031066;28;20369;-75
2024/02/08 00:18:25;;;;;;;3.97;2.67;;;6.70;99.90;;;;;;5039049;28;20454;-75
2024/02/08 00:20:51;;;;;;;4.10;3.53;;;6.70;99.90;;;;;;5051918;28;20469;-75
2024/02/08 00:23:17;;;;;;;3.93;3.10;;;6.70;99.90;;;;;;5020811;28;20322;-75
2024/02/08 00:25:45;;;;;;;5.93;3.43;;;6.70;99.90;;;;;;5035900;28;20220;-75
2024/02/08 00:28:13;;;;;;;4.63;3.60;;;6.70;99.90;;;;;;5041327;28;20553;-76
2024/02/08 00:30:40;;;;;;;3.80;2.93;;;6.70;99.90;;;;;;5045470;28;20999;-76
2024/02/08 00:33:09;;;;;;;3.93;3.10;;;6.70;99.90;;;;;;5041336;28;20457;-75
2024/02/08 00:35:35;;;;;;;4.27;3.10;;;6.70;99.90;;;;;;5043067;28;20464;-76
2024/02/08 00:38:01;;;;;;;3.00;2.63;;;6.80;99.90;;;;;;5042088;28;20478;-76
2024/02/08 00:40:26;;;;;;;5.57;3.10;;;6.80;99.90;;;;;;5045101;28;20243;-74
2024/02/08 00:42:53;;;;;;;4.03;2.97;;;6.80;99.90;;;;;;5041147;28;20952;-73
2024/02/08 00:45:22;;;;;;;4.80;3.07;;;6.80;99.90;;;;;;5041205;28;20215;-75
2024/02/08 00:47:54;;;;;;;4.33;3.00;;;6.80;99.90;;;;;;5037024;28;20458;-75
2024/02/08 00:50:21;;;;;;;3.60;3.00;;;6.80;99.90;;;;;;5039286;28;20457;-76
2024/02/08 00:52:47;;;;;;;4.87;2.77;;;6.80;99.90;;;;;;5037153;28;20478;-74
2024/02/08 00:55:16;;;;;;;3.30;2.47;;;6.70;99.90;;;;;;5035695;28;20450;-75
2024/02/08 00:57:42;;;;;;;3.13;2.70;;;6.80;99.90;;;;;;5040909;28;20462;-76
2024/02/08 01:00:08;;;;;;;3.30;3.00;;;6.80;99.90;;;;;;5041423;28;20516;-75
2024/02/08 01:02:34;;;;;;;2.90;2.43;;;6.70;99.90;;;;;;5044797;28;20509;-75
2024/02/08 01:05:01;;;;;;;4.63;2.83;;;6.70;99.90;;;;;;5021231;28;20451;-75
2024/02/08 01:07:31;;;;;;;4.20;2.57;;;6.70;99.90;;;;;;5038467;28;20224;-77
2024/02/08 01:09:58;;;;;;;4.10;2.73;;;6.80;99.90;;;;;;5039097;28;20854;-76
2024/02/08 01:12:23;;;;;;;3.83;2.97;;;6.70;99.90;;;;;;5052590;28;20457;-75
2024/02/08 01:14:50;;;;;;;3.83;3.43;;;6.70;99.90;;;;;;5034553;28;20454;-76
2024/02/08 01:17:16;;;;;;;4.27;2.50;;;6.70;99.90;;;;;;5044585;28;20221;-76
2024/02/08 01:19:42;;;;;;;5.40;3.50;;;6.70;99.90;;;;;;5045679;28;20457;-76
2024/02/08 01:22:08;;;;;;;3.20;2.87;;;6.70;99.90;;;;;;5040385;28;20449;-76
2024/02/08 01:24:34;;;;;;;4.67;3.10;;;6.70;99.90;;;;;;5047465;28;20226;-75
2024/02/08 01:27:01;;;;;;;3.47;2.90;;;6.70;99.90;;;;;;5047011;28;20227;-76
2024/02/08 01:29:27;;;;;;;4.00;3.13;;;6.70;99.90;;;;;;5034974;28;20458;-76
2024/02/08 01:31:53;;;;;;;4.27;2.77;;;6.70;99.90;;;;;;5043420;28;20453;-75
2024/02/08 01:34:23;;;;;;;4.07;3.00;;;6.70;99.90;;;;;;5028451;28;20221;-75
2024/02/08 01:36:52;;;;;;;3.23;2.23;;;6.70;99.90;;;;;;5036816;28;20546;-75
2024/02/08 01:39:24;;;;;;;3.17;2.77;;;6.70;99.90;;;;;;5046836;28;20991;-75
2024/02/08 01:41:51;;;;;;;3.33;3.00;;;6.70;99.90;;;;;;5044868;28;20455;-75
2024/02/08 01:44:17;;;;;;;5.27;3.00;;;6.70;99.90;;;;;;5041127;28;20454;-76
2024/02/08 01:46:43;;;;;;;3.10;2.80;;;6.80;99.90;;;;;;5043678;28;20835;-76
2024/02/08 01:49:19;;;;;;;3.80;3.00;;;6.80;99.90;;;;;;5029712;28;20220;-75
2024/02/08 01:51:46;;;;;;;3.00;2.60;;;6.80;99.90;;;;;;5042983;28;20237;-76
2024/02/08 01:54:12;;;;;;;4.60;2.70;;;6.80;99.90;;;;;;5042264;28;20991;-75
2024/02/08 01:56:42;;;;;;;3.43;2.40;;;6.70;99.90;;;;;;5044550;28;20563;-76
2024/02/08 01:59:13;;;;;;;3.37;2.83;;;6.70;99.90;;;;;;5043377;28;20468;-76
2024/02/08 02:01:46;;;;;;;3.40;2.50;;;6.80;99.90;;;;;;5041936;28;20458;-76
2024/02/08 02:04:15;;;;;;;2.40;2.03;;;6.80;99.90;;;;;;5044841;28;20525;-76
2024/02/08 02:06:41;;;;;;;4.23;2.80;;;6.80;99.90;;;;;;5027080;28;20454;-76
2024/02/08 02:09:09;;;;;;;3.70;2.43;;;6.80;99.90;;;;;;5026754;28;20466;-76
2024/02/08 02:11:50;;;;;;;4.00;2.73;;;6.80;99.90;;;;;;5041754;28;20458;-76
2024/02/08 02:14:17;;;;;;;3.40;2.70;;;6.80;99.90;;;;;;5026794;28;20455;-75
2024/02/08 02:16:43;;;;;;;3.80;2.87;;;6.70;99.90;;;;;;5043488;28;20494;-76
2024/02/08 02:19:09;;;;;;;3.97;3.20;;;6.70;99.90;;;;;;5044797;28;20478;-75
2024/02/08 02:21:35;;;;;;;3.37;2.53;;;6.70;99.90;;;;;;5044764;28;20469;-76
2024/02/08 02:24:02;;;;;;;2.97;2.23;;;6.70;99.90;;;;;;5038520;28;20501;-75
2024/02/08 02:26:29;;;;;;;2.80;2.47;;;6.70;99.90;;;;;;5024700;28;20994;-76
2024/02/08 02:28:55;;;;;;;4.00;2.20;;;6.70;99.90;;;;;;5040579;28;20546;-75
2024/02/08 02:31:23;;;;;;;4.23;3.47;;;6.70;99.90;;;;;;5043961;28;20537;-75
2024/02/08 02:33:50;;;;;;;4.90;3.23;;;6.70;99.90;;;;;;5040149;28;20543;-76
2024/02/08 02:36:17;;;;;;;3.77;2.70;;;6.70;99.90;;;;;;5047535;28;20557;-76
2024/02/08 02:38:45;;;;;;;3.90;2.80;;;6.80;99.90;;;;;;5042616;28;20508;-75
2024/02/08 02:41:10;;;;;;;3.40;2.53;;;6.80;99.90;;;;;;5040755;28;20451;-75
2024/02/08 02:43:37;;;;;;;3.07;2.27;;;6.70;99.90;;;;;;5058031;28;20467;-75
2024/02/08 02:46:05;;;;;;;3.33;2.27;;;6.70;99.90;;;;;;5021072;28;20241;-76
2024/02/08 02:48:34;;;;;;;2.33;2.13;;;6.80;99.90;;;;;;5041880;28;20459;-76
2024/02/08 02:51:01;;;;;;;3.90;2.43;;;6.80;99.90;;;;;;5039929;28;20454;-75
2024/02/08 02:53:30;;;;;;;3.70;2.40;;;6.80;99.90;;;;;;5039336;28;20517;-76
2024/02/08 02:55:58;;;;;;;2.67;2.20;;;6.70;99.90;;;;;;5049392;28;20531;-76
2024/02/08 02:58:27;;;;;;;3.67;2.67;;;6.70;99.90;;;;;;5055039;28;20477;-75
2024/02/08 03:01:04;;;;;;;4.07;2.47;;;6.70;99.90;;;;;;5041887;28;20454;-75
2024/02/08 03:03:37;;;;;;;2.93;2.60;;;6.70;99.90;;;;;;5039842;28;20458;-75
2024/02/08 03:06:13;;;;;;;3.13;2.03;;;6.70;99.90;;;;;;5035928;28;20474;-76
2024/02/08 03:08:41;;;;;;;3.60;2.87;;;6.80;99.90;;;;;;5038678;28;20863;-75
2024/02/08 03:11:10;;;;;;;4.10;2.53;;;6.80;99.90;;;;;;5037627;28;20454;-75
2024/02/08 03:13:40;;;;;;;3.17;2.60;;;6.80;99.90;;;;;;5041402;28;20474;-75
2024/02/08 03:16:09;;;;;;;3.93;2.20;;;6.80;99.90;;;;;;5025166;28;20470;-76
2024/02/08 03:18:43;;;;;;;3.13;2.27;;;6.80;99.90;;;;;;5045368;28;20468;-75
2024/02/08 03:21:21;;;;;;;3.70;2.80;;;6.80;99.90;;;;;;5045040;28;20447;-75
2024/02/08 03:23:48;;;;;;;3.57;2.50;;;6.70;99.90;;;;;;5037751;28;20455;-76
2024/02/08 03:26:17;;;;;;;4.03;2.67;;;6.70;99.90;;;;;;5023204;28;20474;-76
2024/02/08 03:28:43;;;;;;;3.93;2.50;;;6.70;99.90;;;;;;5042362;28;20459;-76
2024/02/08 03:31:09;;;;;;;4.97;2.90;;;6.70;99.90;;;;;;5046542;28;20991;-75
2024/02/08 03:33:37;;;;;;;4.53;2.93;;;6.70;99.90;;;;;;5043256;28;20451;-75
2024/02/08 03:36:06;;;;;;;3.80;2.60;;;6.70;99.90;;;;;;5020165;28;20370;-76
2024/02/08 03:38:33;;;;;;;5.07;3.40;;;6.70;99.90;;;;;;5038213;28;20562;-75
2024/02/08 03:40:59;;;;;;;3.60;2.90;;;6.70;99.90;;;;;;5019223;28;20451;-75
2024/02/08 03:43:26;;;;;;;4.50;2.53;;;6.70;99.90;;;;;;5039560;28;20481;-75
2024/02/08 03:45:57;;;;;;;2.37;2.17;;;6.70;99.90;;;;;;5043022;28;20458;-76
2024/02/08 03:48:23;;;;;;;3.80;2.47;;;6.70;99.90;;;;;;5042535;28;20466;-75
2024/02/08 03:50:52;;;;;;;2.67;2.10;;;6.70;99.90;;;;;;5039801;28;20462;-76
2024/02/08 03:53:20;;;;;;;3.97;2.10;;;6.70;99.90;;;;;;5041697;28;20469;-76
2024/02/08 03:55:47;;;;;;;4.17;2.47;;;6.70;99.90;;;;;;5036482;28;20458;-75
2024/02/08 03:58:17;;;;;;;5.83;3.20;;;6.70;99.90;;;;;;5042017;28;20463;-75
2024/02/08 04:00:46;;;;;;;2.73;2.00;;;6.70;99.90;;;;;;5037716;28;20470;-76
2024/02/08 04:03:23;;;;;;;2.77;2.00;;;6.70;99.90;;;;;;5042564;28;21057;-75
2024/02/08 04:54:38;;;;;;;5.93;3.13;;;6.80;99.90;;;;;;5041696;28;20454;-76
2024/02/08 04:57:07;;;;;;;8.60;3.87;;;6.80;99.90;;;;;;5039438;28;20475;-75
2024/02/08 04:59:36;;;;;;;6.93;4.03;;;6.80;99.90;;;;;;5043440;28;20536;-74
2024/02/08 05:02:06;;;;;;;8.63;4.97;;;6.70;99.90;;;;;;5041936;28;20459;-76
2024/02/08 05:04:35;;;;;;;6.80;4.30;;;6.80;99.90;;;;;;5041923;28;20497;-75
2024/02/08 05:07:03;;;;;;;6.60;3.73;;;6.80;99.90;;;;;;5025439;28;20505;-75
2024/02/08 05:09:30;;;;;;;9.77;4.70;;;6.70;99.90;;;;;;5045467;28;20462;-75
2024/02/08 05:11:57;;;;;;;6.60;4.10;;;6.80;99.90;;;;;;5027127;28;20450;-75
2024/02/08 05:14:23;;;;;;;5.43;3.00;;;6.80;99.90;;;;;;5045397;28;20458;-76
2024/02/08 05:16:54;;;;;;;5.90;3.93;;;6.80;99.90;;;;;;5026332;28;20461;-75
2024/02/08 05:19:23;;;;;;;7.13;4.60;;;6.70;99.90;;;;;;5028733;28;20224;-75
2024/02/08 05:21:50;;;;;;;8.57;4.90;;;6.70;99.90;;;;;;5040650;28;21123;-75
2024/02/08 05:24:15;;;;;;;6.90;4.10;;;6.80;99.90;;;;;;5043336;28;20462;-75
2024/02/08 05:26:41;;;;;;;6.57;3.60;;;6.70;99.90;;;;;;5027297;28;20477;-75
2024/02/08 05:29:08;;;;;;;5.27;3.53;;;6.70;99.90;;;;;;5041372;28;20302;-75
2024/02/08 05:31:39;;;;;;;5.60;3.60;;;6.70;99.90;;;;;;5044905;28;20600;-76
2024/02/08 05:34:10;;;;;;;5.10;2.73;;;6.70;99.90;;;;;;5027007;28;20467;-75
2024/02/08 05:36:39;;;;;;;4.37;2.93;;;6.70;99.90;;;;;;5043167;28;20470;-75
2024/02/08 05:39:05;;;;;;;6.10;3.27;;;6.70;99.90;;;;;;5025713;28;20475;-76
2024/02/08 05:41:33;;;;;;;4.83;2.60;;;6.70;99.90;;;;;;5043218;28;20470;-75
2024/02/08 05:44:07;;;;;;;4.77;2.40;;;6.70;99.90;;;;;;5034086;28;20556;-75
2024/02/08 05:46:37;;;;;;;3.60;1.83;;;6.70;99.90;;;;;;5041378;28;20566;-75
2024/02/08 05:49:14;;;;;;;3.73;2.33;;;6.70;99.90;;;;;;5035489;28;20562;-76
2024/02/08 05:51:51;;;;;;;3.20;2.33;;;6.70;99.90;;;;;;5059914;28;20463;-75
2024/02/08 05:54:20;;;;;;;3.40;2.37;;;6.70;99.90;;;;;;5046685;28;20445;-75
2024/02/08 05:56:47;;;;;;;3.43;2.30;;;6.80;99.90;;;;;;5040762;28;20468;-75
2024/02/08 05:59:17;;;;;;;3.97;2.93;;;6.80;99.90;;;;;;5050175;28;20466;-75
2024/02/08 06:01:47;;;;;;;3.40;2.20;;;6.80;99.90;;;;;;5027474;28;20470;-76
2024/02/08 06:04:24;;;;;;;3.37;2.10;;;6.80;99.90;;;;;;5028064;28;20474;-76
2024/02/08 06:07:05;;;;;;;3.50;2.00;;;6.80;99.90;;;;;;5048843;28;20474;-76
2024/02/08 06:12:20;;;;;;;2.47;2.17;;;6.70;99.90;;;;;;5045898;28;20512;-75
2024/02/08 06:14:47;;;;;;;4.00;2.57;;;6.80;99.90;;;;;;5059232;28;20546;-75
2024/02/08 06:17:23;;;;;;;3.53;2.30;;;6.80;99.90;;;;;;5047165;28;20466;-75
2024/02/08 06:19:52;;;;;;;3.03;2.33;;;6.80;99.90;;;;;;5046234;28;20470;-76
2024/02/08 06:22:22;;;;;;;5.90;2.20;;;6.80;99.90;;;;;;5043352;28;20467;-75
2024/02/08 06:24:49;;;;;;;5.70;2.27;;;6.80;99.90;;;;;;5037724;28;20547;-75
2024/02/08 06:27:14;;;;;;;2.63;1.77;;;6.80;99.90;;;;;;5041441;28;20470;-76
2024/02/08 06:29:49;;;;;;;2.17;1.70;;;6.80;99.90;;;;;;5039903;28;20467;-75
2024/02/08 06:37:42;;;;;;;2.63;1.70;;;6.70;99.90;;;;;;5041147;28;20462;-74
2024/02/08 06:40:17;;;;;;;2.77;1.70;;;6.80;99.90;;;;;;5034707;28;20482;-75
2024/02/08 06:48:14;;;;;;;2.97;1.60;;;6.80;99.90;;;;;;5036432;28;20546;-75
2024/02/08 07:37:18;;;;;;;2.37;1.33;;;6.80;99.90;;;;;;5050065;28;20521;-76
2024/02/08 07:39:53;;;;;;;2.70;1.83;;;6.80;99.90;;;;;;5037533;28;20482;-75
2024/02/08 07:42:29;;;;;;;1.83;1.40;;;6.80;99.90;;;;;;5035333;28;20353;-76
2024/02/08 07:44:57;;;;;;;7.80;1.90;;;6.80;99.90;;;;;;5047779;28;20971;-75
2024/02/08 07:47:27;;;;;;;2.30;1.60;;;6.90;99.90;;;;;;5041671;28;20501;-76
2024/02/08 07:50:08;;;;;;;1.83;1.50;;;6.80;99.90;;;;;;5034711;28;20478;-74
2024/02/08 07:52:45;;;;;;;2.10;1.80;;;6.80;99.90;;;;;;5040317;28;20462;-75
2024/02/08 07:55:20;;;;;;;1.67;1.40;;;6.80;99.90;;;;;;5036991;28;20458;-75
2024/02/08 07:57:57;;;;;;;3.17;1.50;;;6.90;99.90;;;;;;5041596;28;20925;-75
2024/02/08 08:00:41;;;;;;;1.63;1.53;;;6.90;99.90;;;;;;5039787;28;20554;-76
2024/02/08 08:03:09;;;;;;;1.30;1.10;;;6.90;99.90;;;;;;5035305;28;20501;-76
2024/02/08 08:05:41;;;;;;;1.70;1.40;;;6.90;99.90;;;;;;5040567;28;20562;-75
2024/02/08 08:08:24;;;;;;;1.67;1.30;;;6.90;99.90;;;;;;5038959;28;20463;-76
2024/02/08 08:10:56;;;;;;;1.53;1.10;;;6.90;99.90;;;;;;5036425;28;20458;-76
2024/02/08 08:18:57;;;;;;;2.13;1.30;;;6.90;99.90;;;;;;5029756;28;20502;-75
2024/02/08 08:21:27;;;;;;;1.00;0.90;;;6.90;99.90;;;;;;5040169;28;20525;-74
2024/02/08 08:24:00;;;;;;;1.40;0.70;;;6.80;99.90;;;;;;5017428;28;21080;-76
2024/02/08 08:26:44;;;;;;;1.23;1.00;;;6.90;99.90;;;;;;5036540;28;20474;-75
2024/02/08 08:29:16;;;;;;;2.03;1.70;;;6.90;99.90;;;;;;5045497;28;20451;-76
2024/02/08 08:31:51;;;;;;;1.93;1.60;;;6.90;99.90;;;;;;5048283;28;20712;-75
2024/02/08 08:37:02;;;;;;;1.70;1.60;;;6.90;99.90;;;;;;5046264;28;20497;-75
2024/02/08 08:39:46;;;;;;;2.50;1.80;;;6.90;99.90;;;;;;5042176;28;20497;-75
2024/02/08 08:42:23;;;;;;;1.70;1.43;;;6.90;99.90;;;;;;5046348;28;20470;-76
2024/02/08 08:44:56;;;;;;;1.40;1.30;;;6.90;99.90;;;;;;5047615;28;20474;-76
2024/02/08 08:47:24;;;;;;;1.30;1.20;;;6.90;99.90;;;;;;5047330;28;20697;-75
2024/02/08 08:49:50;;;;;;;0.97;0.80;;;6.90;99.90;;;;;;5031887;28;21050;-76
2024/02/08 08:52:26;;;;;;;0.83;0.83;;;6.90;99.90;;;;;;5048811;28;20479;-75
2024/02/08 08:55:10;;;;;;;1.07;0.97;;;6.90;99.90;;;;;;5043034;28;20470;-75
2024/02/08 08:57:39;;;;;;;3.17;1.70;;;6.90;99.90;;;;;;5031176;28;20474;-75
2024/02/08 09:00:11;;;;;;;1.97;1.30;;;6.80;99.90;;;;;;5046860;28;20474;-76
2024/02/08 09:02:42;;;;;;;1.57;1.27;;;6.80;99.90;;;;;;5046509;28;20478;-75
2024/02/08 09:05:17;;;;;;;0.80;0.80;;;6.80;99.90;;;;;;5058899;28;20466;-75
2024/02/08 09:07:46;;;;;;;0.70;0.70;;;6.80;99.90;;;;;;5047084;28;20470;-75
2024/02/08 09:10:16;;;;;;;1.37;1.00;;;6.90;99.90;;;;;;5048004;28;20509;-75
2024/02/08 09:12:58;;;;;;;0.73;0.73;;;6.90;99.90;;;;;;5047514;28;20461;-75
2024/02/08 09:15:27;;;;;;;1.20;1.00;;;6.90;99.90;;;;;;5055288;28;20494;-75
2024/02/08 09:17:58;;;;;;;0.73;0.70;;;6.90;99.90;;;;;;5038008;28;20482;-74
2024/02/08 09:20:28;;;;;;;1.90;1.07;;;6.90;99.90;;;;;;5026070;28;21071;-76
2024/02/08 09:22:55;;;;;;;0.87;0.70;;;6.90;99.90;;;;;;5038712;28;21042;-76
2024/02/08 09:25:24;;;;;;;0.63;0.53;;;6.90;99.90;;;;;;5044501;28;20462;-76
2024/02/08 09:27:56;;;;;;;1.17;1.00;;;6.90;99.90;;;;;;5040980;28;20451;-75
2024/02/08 09:30:38;;;;;;;1.10;0.93;;;6.90;99.90;;;;;;5058837;28;20459;-76
2024/02/08 09:33:29;;;;;;;0.87;0.80;;;6.90;99.90;;;;;;5036535;28;20454;-75
2024/02/08 09:35:56;;;;;;;2.07;1.07;;;6.90;99.90;;;;;;5041443;28;20458;-75
2024/02/08 09:38:22;;;;;;;1.50;1.40;;;6.90;99.90;;;;;;5046766;28;20833;-76
2024/02/08 09:40:51;;;;;;;1.37;1.27;;;6.90;99.90;;;;;;5050283;28;20461;-75
2024/02/08 09:43:17;;;;;;;1.63;1.17;;;6.90;99.90;;;;;;5043199;28;20281;-76
2024/02/08 09:46:01;;;;;;;1.20;1.10;;;6.90;99.90;;;;;;5039220;28;20482;-76
2024/02/08 09:48:36;;;;;;;2.00;1.50;;;6.90;99.90;;;;;;5042455;28;20319;-76
2024/02/08 09:51:11;;;;;;;1.40;1.30;;;6.90;99.90;;;;;;5024188;28;20582;-76
2024/02/08 09:53:40;;;;;;;1.60;1.50;;;6.90;99.90;;;;;;5041563;28;20466;-75
2024/02/08 09:56:25;;;;;;;1.70;1.17;;;6.90;99.90;;;;;;5035669;28;20466;-76
2024/02/08 09:59:02;;;;;;;1.30;1.10;;;6.90;99.90;;;;;;5038862;28;20475;-77
2024/02/08 10:01:35;;;;;;;1.27;1.07;;;6.90;99.90;;;;;;5036959;28;20814;-76
2024/02/08 10:04:04;;;;;;;4.20;1.60;;;6.90;99.90;;;;;;5039237;28;20462;-76
2024/02/08 10:09:41;;;;;;;1.33;1.23;;;6.90;99.90;;;;;;5041256;28;20455;-75
2024/02/08 10:12:18;;;;;;;1.53;1.23;;;6.90;99.90;;;;;;5038713;28;20455;-76
2024/02/08 10:14:47;;;;;;;2.97;1.47;;;6.90;99.90;;;;;;5027661;28;20455;-76
2024/02/08 10:17:40;;;;;;;1.23;1.20;;;7.00;99.90;;;;;;5040859;28;20461;-76
2024/02/08 10:23:09;;;;;;;1.83;1.57;;;7.00;99.90;;;;;;5039501;28;20470;-76
2024/02/08 10:28:21;;;;;;;1.60;1.50;;;7.00;99.90;;;;;;5042391;28;20493;-76
2024/02/08 10:31:05;;;;;;;1.23;1.20;;;7.00;99.90;;;;;;5042741;28;20458;-75
2024/02/08 10:33:37;;;;;;;1.33;1.00;;;7.00;99.90;;;;;;5052806;28;20455;-76
2024/02/08 10:36:35;;;;;;;1.47;1.37;;;7.00;99.90;;;;;;5038850;28;20477;-75
2024/02/08 10:38:55;;;;;;;1.07;0.90;;;7.00;99.90;;;;;;5038772;28;20460;-73
2024/02/08 10:41:28;;;;;;;1.20;1.03;;;7.00;99.90;;;;;;5040942;28;20546;-76
2024/02/08 10:43:57;;;;;;;1.70;1.60;;;7.00;99.90;;;;;;5038629;28;20454;-76
2024/02/08 10:46:34;;;;;;;1.60;1.50;;;7.00;99.90;;;;;;5025296;28;20502;-75
2024/02/08 10:49:08;;;;;;;1.23;1.00;;;7.00;99.90;;;;;;5035161;28;20465;-77
2024/02/08 10:51:35;;;;;;;1.40;1.30;;;7.00;99.90;;;;;;5053323;28;20461;-76
2024/02/08 10:54:06;;;;;;;1.73;1.23;;;7.10;99.90;;;;;;5038904;28;20450;-75
2024/02/08 10:56:44;;;;;;;1.97;1.70;;;7.10;99.90;;;;;;5041191;28;20993;-76
2024/02/08 10:59:14;;;;;;;1.90;1.50;;;7.10;99.90;;;;;;5040860;28;20470;-75
2024/02/08 11:04:28;;;;;;;2.03;1.30;;;7.10;99.90;;;;;;5043166;28;20458;-76
2024/02/08 11:07:14;;;;;;;1.77;1.57;;;7.10;99.90;;;;;;5041258;28;20463;-75
2024/02/08 11:09:40;;;;;;;1.83;1.37;;;7.10;99.90;;;;;;5049193;28;20458;-75
2024/02/08 11:12:29;;;;;;;1.80;1.70;;;7.20;99.90;;;;;;5034809;28;20595;-75
2024/02/08 11:15:13;;;;;;;2.40;1.90;;;7.20;99.90;;;;;;5034964;28;20220;-75
2024/02/08 11:17:45;;;;;;;2.50;2.10;;;7.20;99.90;;;;;;5037010;28;20467;-75
2024/02/08 11:20:17;;;;;;;2.77;1.63;;;7.20;99.90;;;;;;5037741;28;20469;-76
2024/02/08 11:22:43;;;;;;;2.00;1.80;;;7.20;99.90;;;;;;5023851;28;20458;-75
2024/02/08 11:25:19;;;;;;;4.30;2.27;;;7.20;99.90;;;;;;5037820;28;20469;-76
2024/02/08 11:27:55;;;;;;;3.03;2.40;;;7.20;99.90;;;;;;5022639;28;20921;-75
2024/02/08 11:30:34;;;;;;;2.40;2.20;;;7.20;99.90;;;;;;5043399;28;21166;-76
2024/02/08 11:33:04;;;;;;;2.80;2.07;;;7.30;99.90;;;;;;5034181;28;20472;-75
2024/02/08 11:35:45;;;;;;;2.60;2.40;;;7.30;99.90;;;;;;5037900;28;20828;-75
2024/02/08 11:38:28;;;;;;;1.67;1.57;;;7.30;99.90;;;;;;5017292;28;20473;-76
2024/02/08 11:40:57;;;;;;;3.13;1.80;;;7.30;99.90;;;;;;5046889;28;20456;-75
2024/02/08 11:43:24;;;;;;;3.27;2.10;;;7.30;99.90;;;;;;5039126;28;20439;-75
2024/02/08 11:45:56;;;;;;;5.67;2.90;;;7.40;99.90;;;;;;5037014;28;20509;-76
2024/02/08 11:48:30;;;;;;;3.50;2.57;;;7.40;99.90;;;;;;5039470;28;20470;-76
2024/02/08 11:51:02;;;;;;;2.57;2.00;;;7.40;99.90;;;;;;5039597;28;20466;-75
2024/02/08 11:53:31;;;;;;;2.17;1.90;;;7.40;99.90;;;;;;5041714;28;20466;-76
2024/02/08 11:56:03;;;;;;;2.93;2.30;;;7.40;99.90;;;;;;5053129;28;20862;-76
2024/02/08 11:58:35;;;;;;;2.70;2.50;;;7.40;99.90;;;;;;5039467;28;20498;-76
2024/02/08 12:01:03;;;;;;;3.27;2.50;;;7.40;99.90;;;;;;5035006;28;20450;-75
2024/02/08 12:03:30;;;;;;;2.77;2.33;;;7.50;99.90;;;;;;5037417;28;20463;-76
2024/02/08 12:05:57;;;;;;;2.83;2.20;;;7.50;99.90;;;;;;5033617;28;20549;-76
2024/02/08 12:08:25;;;;;;;2.73;2.20;;;7.50;99.90;;;;;;5038953;28;20491;-76
2024/02/08 12:10:51;;;;;;;5.17;2.80;;;7.50;99.90;;;;;;5033821;28;20443;-76
2024/02/08 12:13:25;;;;;;;2.77;2.50;;;7.50;99.90;;;;;;5040889;28;20473;-75
2024/02/08 12:15:55;;;;;;;5.20;2.23;;;7.60;99.90;;;;;;5038544;28;20547;-75
2024/02/08 12:18:28;;;;;;;2.63;2.40;;;7.60;99.90;;;;;;5055742;28;20568;-75
2024/02/08 12:21:01;;;;;;;2.97;2.37;;;7.60;99.90;;;;;;5039039;28;20514;-76
2024/02/08 12:23:35;;;;;;;2.73;2.10;;;7.60;99.90;;;;;;5040458;28;20469;-75
2024/02/08 12:26:06;;;;;;;3.90;2.20;;;7.60;99.90;;;;;;5017356;28;20459;-76
2024/02/08 12:28:41;;;;;;;2.27;2.07;;;7.60;99.90;;;;;;5041099;28;20838;-75
2024/02/08 12:31:16;;;;;;;4.03;2.67;;;7.60;99.90;;;;;;5034393;28;20451;-77
2024/02/08 12:33:45;;;;;;;2.63;2.43;;;7.70;99.90;;;;;;5041261;28;20524;-75
2024/02/08 12:36:14;;;;;;;3.50;2.20;;;7.70;99.90;;;;;;5037562;28;20466;-76
2024/02/08 12:38:41;;;;;;;2.63;2.43;;;7.70;99.90;;;;;;5043622;28;20580;-76
2024/02/08 12:41:07;;;;;;;3.67;2.90;;;7.70;99.90;;;;;;5032358;28;20452;-77
2024/02/08 12:43:33;;;;;;;3.60;2.90;;;7.70;99.90;;;;;;5039867;28;20582;-75
2024/02/08 12:46:00;;;;;;;3.90;2.67;;;7.80;99.90;;;;;;5016019;28;20297;-76
2024/02/08 12:48:29;;;;;;;4.63;2.43;;;7.80;99.90;;;;;;5039712;28;20469;-76
2024/02/08 12:50:55;;;;;;;5.43;3.27;;;7.80;99.90;;;;;;5034061;28;20459;-75
2024/02/08 12:53:21;;;;;;;6.80;3.60;;;7.80;99.90;;;;;;5037173;28;20459;-77
2024/02/08 12:55:47;;;;;;;6.17;3.50;;;7.90;99.90;;;;;;5040202;28;20477;-75
2024/02/08 12:58:17;;;;;;;3.03;2.60;;;7.90;99.90;;;;;;5035698;28;21044;-75
2024/02/08 13:00:45;;;;;;;12.07;5.10;;;7.90;99.90;;;;;;5036754;28;20211;-77
2024/02/08 13:03:11;;;;;;;8.87;5.63;;;7.90;99.90;;;;;;5038552;28;20454;-76
2024/02/08 13:05:38;;;;;;;8.40;6.37;;;7.90;99.90;;;;;;5037291;28;20463;-75
2024/02/08 13:08:06;;;;;;;9.90;5.47;;;7.90;99.90;;;;;;5046403;28;20483;-76
2024/02/08 13:10:33;;;;;;;9.87;5.77;;;8.00;99.90;;;;;;5041935;28;20561;-76
2024/02/08 13:13:09;;;;;;;7.50;5.07;;;8.00;99.90;;;;;;5035457;28;20461;-75
2024/02/08 13:15:36;;;;;;;5.57;4.13;;;8.00;99.90;;;;;;5021921;28;20508;-76
2024/02/08 13:18:02;;;;;;;5.10;4.00;;;8.00;99.90;;;;;;5049420;28;20489;-76
2024/02/08 13:20:29;;;;;;;4.87;3.97;;;8.00;99.90;;;;;;5025435;28;20474;-76
2024/02/08 13:22:55;;;;;;;5.83;3.57;;;8.00;99.90;;;;;;5022754;28;20485;-76
2024/02/08 13:25:22;;;;;;;5.13;4.03;;;8.10;99.90;;;;;;5043398;28;20454;-76
2024/02/08 13:27:50;;;;;;;7.73;3.60;;;8.10;99.90;;;;;;5046551;28;20458;-75
2024/02/08 13:30:17;;;;;;;4.50;3.53;;;8.10;99.90;;;;;;5043610;28;20971;-76
2024/02/08 13:32:52;;;;;;;5.10;3.23;;;8.10;99.90;;;;;;5028021;28;20454;-76
2024/02/08 13:35:18;;;;;;;3.60;3.27;;;8.20;99.90;;;;;;5038247;28;20438;-76
2024/02/08 13:37:49;;;;;;;3.20;2.87;;;8.20;99.90;;;;;;5059542;28;20935;-75
2024/02/08 13:40:17;;;;;;;4.00;2.93;;;8.20;99.90;;;;;;5038422;28;20459;-76
2024/02/08 13:42:43;;;;;;;4.80;2.67;;;8.20;99.90;;;;;;5042069;28;20545;-76
2024/02/08 13:45:11;;;;;;;4.57;3.13;;;8.30;99.90;;;;;;5021818;28;20593;-77
2024/02/08 13:47:37;;;;;;;4.50;3.00;;;8.30;99.90;;;;;;5048265;28;20471;-75
2024/02/08 13:50:10;;;;;;;4.60;2.87;;;8.30;99.90;;;;;;5036205;28;20466;-77
2024/02/08 13:52:37;;;;;;;4.57;3.13;;;8.30;99.90;;;;;;5041103;28;20227;-76
2024/02/08 13:55:07;;;;;;;2.40;2.20;;;8.30;99.90;;;;;;5049833;28;20463;-75
2024/02/08 13:57:38;;;;;;;3.83;2.70;;;8.40;99.90;;;;;;5061976;28;20596;-75
2024/02/08 14:00:08;;;;;;;3.70;2.87;;;8.40;99.90;;;;;;5022529;28;20892;-76
2024/02/08 14:02:39;;;;;;;3.23;2.80;;;8.40;99.90;;;;;;5020889;28;20976;-76
2024/02/08 14:05:16;;;;;;;6.07;3.63;;;8.40;99.90;;;;;;5038469;28;20470;-76
2024/02/08 14:07:52;;;;;;;3.67;2.87;;;8.40;99.90;;;;;;5024321;28;20313;-76
2024/02/08 14:10:18;;;;;;;3.50;3.13;;;8.50;99.90;;;;;;5039671;28;20508;-76
2024/02/08 14:12:48;;;;;;;9.90;5.70;;;8.50;99.90;;;;;;5037257;28;20481;-76
2024/02/08 14:15:21;;;;;;;6.37;4.33;;;8.50;99.90;;;;;;5032781;28;20523;-76
2024/02/08 14:17:54;;;;;;;7.23;4.40;;;8.50;99.90;;;;;;5041356;28;20471;-76
2024/02/08 14:20:30;;;;;;;4.83;3.67;;;8.50;99.90;;;;;;5039979;28;20475;-76
2024/02/08 14:22:59;;;;;;;3.87;3.00;;;8.60;99.90;;;;;;5040861;28;20462;-76
2024/02/08 14:25:48;;;;;;;6.33;3.90;;;8.60;99.90;;;;;;5042238;28;20466;-76
2024/02/08 14:28:19;;;;;;;7.60;4.47;;;8.60;99.90;;;;;;5031792;28;20487;-76
2024/02/08 14:30:48;;;;;;;8.77;4.80;;;8.60;99.90;;;;;;5019764;28;20470;-76
2024/02/08 14:33:19;;;;;;;6.97;5.40;;;8.70;99.90;;;;;;5040793;28;20450;-77
2024/02/08 14:35:47;;;;;;;8.43;5.73;;;8.70;99.90;;;;;;5036759;28;20463;-76
2024/02/08 14:38:14;;;;;;;10.63;6.80;;;8.70;99.90;;;;;;5021080;28;20458;-76
2024/02/08 14:40:41;;;;;;;9.67;6.80;;;8.70;99.90;;;;;;5042360;28;20520;-75
2024/02/08 14:43:06;;;;;;;8.13;5.77;;;8.70;99.90;;;;;;5040929;28;20458;-76
2024/02/08 14:45:38;;;;;;;10.70;6.60;;;8.70;99.90;;;;;;5038249;28;20458;-76
2024/02/08 14:48:10;;;;;;;8.60;6.10;;;8.70;99.90;;;;;;5034667;28;20265;-76
2024/02/08 14:50:49;;;;;;;8.47;6.77;;;8.80;99.90;;;;;;5053849;28;20466;-76
2024/02/08 14:53:16;;;;;;;8.13;6.47;;;8.80;99.90;;;;;;5044004;28;20534;-76
2024/02/08 14:55:45;;;;;;;14.90;6.13;;;8.90;99.90;;;;;;5041320;28;20972;-75
2024/02/08 15:01:52;;;;;;;11.30;5.20;;;9.10;99.90;;;;;;5040209;28;20859;-75
2024/02/08 15:03:53;;;;;;;9.63;3.43;;;9.10;99.90;;;;;;5039620;28;20463;-76
2024/02/08 15:14:35;;;;;;;6.10;2.70;;;9.60;99.90;;;;;;5038203;28;20473;-76
2024/02/08 15:17:10;;;;;;;8.73;3.43;;;9.70;99.90;;;;;;5034411;28;20466;-76
2024/02/08 15:19:45;;;;;;;9.00;3.23;;;9.70;99.90;;;;;;5036744;28;20476;-75
2024/02/08 15:25:04;;;;;;;8.63;2.97;;;9.70;99.90;;;;;;5036847;28;20469;-76
2024/02/08 15:30:17;;;;;;;4.23;2.40;;;9.90;99.90;;;;;;5039966;28;20481;-76
2024/02/08 15:32:46;;;;;;;4.50;2.77;;;10.00;99.90;;;;;;5036240;28;20465;-76
2024/02/08 15:35:35;;;;;;;10.40;3.23;;;10.00;99.90;;;;;;5051624;28;20471;-75
2024/02/08 15:38:19;;;;;;;11.67;2.70;;;10.00;99.90;;;;;;5032685;28;20840;-76
2024/02/08 15:40:47;;;;;;;5.77;2.30;;;10.00;99.90;;;;;;5038519;28;20466;-76